ENT1FX EPKT-LGIR
Flight info
| Callsign | ENT1FX |
|---|---|
| Flight time | 2h 20m |
| Altitude | 35000 |
| Route | BABKO DCT LITKU DCT LAHOR DCT PARAK DCT OSVIX DCT RAXAD DCT MAKED UL617 MIL UM749 EPALO |
| Aircraft | B738/M-SDFGHIJ1RWXY/EB1 |
Departure
| Time | 2026-05-06 17:42 |
|---|---|
| Airport | Katowice Wojciech Korfanty International Airport (EPKT) |
Arrival
| Time | 2026-05-06 20:02 |
|---|---|
| Airport | Heraklion International Nikos Kazantzakis Airport (LGIR) |
| Time | Latitude | Longitude | Altitude | Speed | Heading |
|---|---|---|---|---|---|
| 2026-05-06 17:25 | 50.47163 | 19.07018 | 974 ft | 0 kts | 180° |
| 2026-05-06 17:35 | 50.47171 | 19.07018 | 685 ft | 3 kts | 179° |
| 2026-05-06 17:36 | 50.47212 | 19.07017 | 974 ft | 3 kts | 186° |
| 2026-05-06 17:36 | 50.47229 | 19.07023 | 974 ft | 3 kts | 221° |
| 2026-05-06 17:36 | 50.47236 | 19.07034 | 974 ft | 1 kts | 270° |
| 2026-05-06 17:36 | 50.47236 | 19.07035 | 974 ft | 0 kts | 270° |
| 2026-05-06 17:38 | 50.47236 | 19.07000 | 979 ft | 10 kts | 270° |
| 2026-05-06 17:39 | 50.47237 | 19.06822 | 972 ft | 23 kts | 270° |
| 2026-05-06 17:39 | 50.47293 | 19.06625 | 973 ft | 21 kts | 351° |
| 2026-05-06 17:39 | 50.47425 | 19.06573 | 973 ft | 21 kts | 294° |
| 2026-05-06 17:39 | 50.47429 | 19.06346 | 968 ft | 21 kts | 270° |
| 2026-05-06 17:40 | 50.47430 | 19.06123 | 967 ft | 20 kts | 270° |
| 2026-05-06 17:40 | 50.47490 | 19.05980 | 967 ft | 0 kts | 358° |
| 2026-05-06 17:40 | 50.47496 | 19.05979 | 969 ft | 5 kts | 358° |
| 2026-05-06 17:41 | 50.47576 | 19.05981 | 971 ft | 11 kts | 15° |
| 2026-05-06 17:41 | 50.47604 | 19.06123 | 969 ft | 21 kts | 89° |
| 2026-05-06 17:41 | 50.47603 | 19.06706 | 974 ft | 88 kts | 90° |
| 2026-05-06 17:41 | 50.47600 | 19.08011 | 981 ft | 149 kts | 90° |
| 2026-05-06 17:42 | 50.47603 | 19.09880 | 1185 ft | 182 kts | 90° |
| 2026-05-06 17:42 | 50.47608 | 19.11841 | 2024 ft | 176 kts | 95° |
| 2026-05-06 17:42 | 50.47584 | 19.13799 | 2675 ft | 190 kts | 95° |
| 2026-05-06 17:42 | 50.47542 | 19.16041 | 2953 ft | 218 kts | 97° |
| 2026-05-06 17:43 | 50.47038 | 19.18337 | 3141 ft | 233 kts | 132° |
| 2026-05-06 17:43 | 50.45727 | 19.19761 | 3682 ft | 232 kts | 163° |
| 2026-05-06 17:43 | 50.44137 | 19.20443 | 4204 ft | 246 kts | 170° |
| 2026-05-06 17:43 | 50.42412 | 19.20992 | 4901 ft | 255 kts | 172° |
| 2026-05-06 17:44 | 50.40682 | 19.21518 | 5880 ft | 254 kts | 172° |
| 2026-05-06 17:44 | 50.38938 | 19.22049 | 6712 ft | 257 kts | 172° |
| 2026-05-06 17:44 | 50.37167 | 19.22595 | 7477 ft | 262 kts | 172° |
| 2026-05-06 17:44 | 50.35370 | 19.23158 | 8288 ft | 265 kts | 172° |
| 2026-05-06 17:45 | 50.33555 | 19.23732 | 9111 ft | 268 kts | 172° |
| 2026-05-06 17:45 | 50.31722 | 19.24317 | 9918 ft | 270 kts | 172° |
| 2026-05-06 17:45 | 50.29852 | 19.24915 | 10455 ft | 283 kts | 171° |
| 2026-05-06 17:45 | 50.27832 | 19.25558 | 10629 ft | 308 kts | 171° |
| 2026-05-06 17:46 | 50.25668 | 19.26252 | 10932 ft | 326 kts | 171° |
| 2026-05-06 17:46 | 50.23421 | 19.26977 | 11542 ft | 333 kts | 171° |
| 2026-05-06 17:46 | 50.21146 | 19.27715 | 12288 ft | 336 kts | 171° |
| 2026-05-06 17:46 | 50.18841 | 19.28464 | 13018 ft | 340 kts | 171° |
| 2026-05-06 17:47 | 50.16509 | 19.29219 | 13706 ft | 345 kts | 171° |
| 2026-05-06 17:47 | 50.14146 | 19.29984 | 14351 ft | 348 kts | 171° |
| 2026-05-06 17:47 | 50.11759 | 19.30756 | 15038 ft | 351 kts | 171° |
| 2026-05-06 17:47 | 50.09358 | 19.31530 | 15715 ft | 353 kts | 172° |
| 2026-05-06 17:48 | 50.06942 | 19.32309 | 16375 ft | 356 kts | 172° |
| 2026-05-06 17:48 | 50.04502 | 19.33094 | 17029 ft | 359 kts | 172° |
| 2026-05-06 17:48 | 50.02042 | 19.33885 | 17669 ft | 363 kts | 172° |
| 2026-05-06 17:48 | 49.99563 | 19.34681 | 18275 ft | 366 kts | 172° |
| 2026-05-06 17:49 | 49.97056 | 19.35484 | 18814 ft | 369 kts | 172° |
| 2026-05-06 17:49 | 49.94561 | 19.36284 | 19338 ft | 373 kts | 172° |
| 2026-05-06 17:49 | 49.91976 | 19.37111 | 19873 ft | 376 kts | 172° |
| 2026-05-06 17:49 | 49.89408 | 19.37933 | 20388 ft | 379 kts | 172° |
| 2026-05-06 17:50 | 49.86800 | 19.38766 | 20902 ft | 383 kts | 172° |
| 2026-05-06 17:50 | 49.84214 | 19.39591 | 21390 ft | 386 kts | 172° |
| 2026-05-06 17:50 | 49.81571 | 19.40433 | 21887 ft | 390 kts | 172° |
| 2026-05-06 17:50 | 49.78896 | 19.41285 | 22381 ft | 394 kts | 172° |
| 2026-05-06 17:51 | 49.76201 | 19.42143 | 22846 ft | 397 kts | 172° |
| 2026-05-06 17:51 | 49.73486 | 19.43005 | 23310 ft | 401 kts | 172° |
| 2026-05-06 17:51 | 49.70740 | 19.43876 | 23717 ft | 404 kts | 172° |
| 2026-05-06 17:51 | 49.67968 | 19.44600 | 24119 ft | 405 kts | 175° |
| 2026-05-06 17:52 | 49.65161 | 19.45174 | 24515 ft | 407 kts | 176° |
| 2026-05-06 17:52 | 49.62346 | 19.45691 | 24924 ft | 409 kts | 176° |
| 2026-05-06 17:52 | 49.59514 | 19.46200 | 25318 ft | 411 kts | 176° |
| 2026-05-06 17:52 | 49.56661 | 19.46720 | 25696 ft | 414 kts | 176° |
| 2026-05-06 17:53 | 49.53792 | 19.47255 | 26081 ft | 416 kts | 176° |
| 2026-05-06 17:53 | 49.50915 | 19.47803 | 26443 ft | 419 kts | 176° |
| 2026-05-06 17:53 | 49.48013 | 19.48363 | 26798 ft | 421 kts | 176° |
| 2026-05-06 17:53 | 49.45093 | 19.48932 | 27135 ft | 424 kts | 176° |
| 2026-05-06 17:54 | 49.42156 | 19.49506 | 27485 ft | 426 kts | 176° |
| 2026-05-06 17:54 | 49.39209 | 19.50084 | 27843 ft | 428 kts | 176° |
| 2026-05-06 17:54 | 49.36247 | 19.50664 | 28175 ft | 430 kts | 176° |
| 2026-05-06 17:54 | 49.33269 | 19.51247 | 28474 ft | 433 kts | 176° |
| 2026-05-06 17:55 | 49.30273 | 19.51831 | 28801 ft | 435 kts | 176° |
| 2026-05-06 17:55 | 49.27252 | 19.52420 | 29114 ft | 437 kts | 176° |
| 2026-05-06 17:55 | 49.24221 | 19.53010 | 29415 ft | 440 kts | 176° |
| 2026-05-06 17:55 | 49.21217 | 19.53594 | 29708 ft | 442 kts | 176° |
| 2026-05-06 17:56 | 49.18161 | 19.54188 | 30033 ft | 442 kts | 176° |
| 2026-05-06 17:56 | 49.15070 | 19.54788 | 30411 ft | 441 kts | 177° |
| 2026-05-06 17:56 | 49.12069 | 19.55371 | 30767 ft | 440 kts | 177° |
| 2026-05-06 17:56 | 49.09027 | 19.55960 | 31063 ft | 441 kts | 177° |
| 2026-05-06 17:57 | 49.05989 | 19.56547 | 31354 ft | 441 kts | 177° |
| 2026-05-06 17:57 | 49.02947 | 19.57135 | 31695 ft | 440 kts | 177° |
| 2026-05-06 17:57 | 48.99910 | 19.57720 | 32017 ft | 438 kts | 178° |
| 2026-05-06 17:57 | 48.96890 | 19.58301 | 32297 ft | 438 kts | 178° |
| 2026-05-06 17:58 | 48.93852 | 19.58883 | 32505 ft | 441 kts | 178° |
| 2026-05-06 17:58 | 48.90806 | 19.59468 | 32788 ft | 440 kts | 178° |
| 2026-05-06 17:58 | 48.87764 | 19.60052 | 33114 ft | 439 kts | 178° |
| 2026-05-06 17:58 | 48.84741 | 19.60632 | 33450 ft | 438 kts | 178° |
| 2026-05-06 17:59 | 48.82708 | 19.61021 | 33648 ft | 438 kts | 178° |
| 2026-05-06 17:59 | 48.79719 | 19.61593 | 33918 ft | 438 kts | 178° |
| 2026-05-06 17:59 | 48.76701 | 19.62169 | 34137 ft | 438 kts | 178° |
| 2026-05-06 17:59 | 48.73674 | 19.62746 | 34367 ft | 438 kts | 178° |
| 2026-05-06 18:00 | 48.69642 | 19.63515 | 34737 ft | 436 kts | 178° |
| 2026-05-06 18:00 | 48.67649 | 19.63894 | 34895 ft | 436 kts | 178° |
| 2026-05-06 18:00 | 48.61578 | 19.65044 | 34881 ft | 441 kts | 178° |
| 2026-05-06 18:01 | 48.55524 | 19.66193 | 34876 ft | 435 kts | 178° |
| 2026-05-06 18:01 | 48.49540 | 19.67326 | 34874 ft | 432 kts | 178° |
| 2026-05-06 18:02 | 48.43578 | 19.68449 | 34884 ft | 432 kts | 178° |
| 2026-05-06 18:02 | 48.37606 | 19.69571 | 34891 ft | 432 kts | 178° |
| 2026-05-06 18:03 | 48.31637 | 19.70690 | 34885 ft | 433 kts | 178° |
| 2026-05-06 18:03 | 48.25649 | 19.71810 | 34878 ft | 433 kts | 178° |
| 2026-05-06 18:04 | 48.19666 | 19.72927 | 34882 ft | 435 kts | 178° |
| 2026-05-06 18:04 | 48.13654 | 19.74047 | 34887 ft | 435 kts | 178° |
| 2026-05-06 18:05 | 48.07632 | 19.75166 | 34878 ft | 436 kts | 178° |
| 2026-05-06 18:05 | 48.01648 | 19.76277 | 34881 ft | 436 kts | 178° |
| 2026-05-06 18:06 | 47.95617 | 19.77393 | 34875 ft | 436 kts | 178° |
| 2026-05-06 18:06 | 47.89591 | 19.78505 | 34862 ft | 435 kts | 178° |
| 2026-05-06 18:07 | 47.83580 | 19.79612 | 34878 ft | 436 kts | 178° |
| 2026-05-06 18:07 | 47.77558 | 19.80717 | 34872 ft | 436 kts | 178° |
| 2026-05-06 18:08 | 47.71545 | 19.81820 | 34883 ft | 435 kts | 178° |
| 2026-05-06 18:08 | 47.65537 | 19.82918 | 34881 ft | 435 kts | 178° |
| 2026-05-06 18:09 | 47.59530 | 19.84014 | 34883 ft | 434 kts | 178° |
| 2026-05-06 18:09 | 47.53528 | 19.85107 | 34879 ft | 434 kts | 178° |
| 2026-05-06 18:10 | 47.47534 | 19.86195 | 34880 ft | 434 kts | 178° |
| 2026-05-06 18:10 | 47.41547 | 19.87279 | 34882 ft | 434 kts | 178° |
| 2026-05-06 18:11 | 47.35600 | 19.88354 | 34879 ft | 434 kts | 178° |
| 2026-05-06 18:11 | 47.29609 | 19.89434 | 34880 ft | 434 kts | 178° |
| 2026-05-06 18:12 | 47.23611 | 19.90513 | 34885 ft | 434 kts | 178° |
| 2026-05-06 18:12 | 47.17624 | 19.91588 | 34886 ft | 434 kts | 178° |
| 2026-05-06 18:13 | 47.11621 | 19.92663 | 34884 ft | 434 kts | 178° |
| 2026-05-06 18:13 | 47.05622 | 19.93735 | 34904 ft | 434 kts | 178° |
| 2026-05-06 18:14 | 46.99625 | 19.94804 | 34907 ft | 435 kts | 178° |
| 2026-05-06 18:14 | 46.93612 | 19.95874 | 34902 ft | 435 kts | 178° |
| 2026-05-06 18:15 | 46.87598 | 19.96941 | 34911 ft | 435 kts | 178° |
| 2026-05-06 18:15 | 46.81585 | 19.98006 | 34909 ft | 435 kts | 178° |
| 2026-05-06 18:16 | 46.75566 | 19.99070 | 34909 ft | 436 kts | 178° |
| 2026-05-06 18:16 | 46.69545 | 20.00131 | 34901 ft | 436 kts | 177° |
| 2026-05-06 18:17 | 46.63533 | 20.01189 | 34901 ft | 436 kts | 177° |
| 2026-05-06 18:17 | 46.57517 | 20.02245 | 34902 ft | 435 kts | 177° |
| 2026-05-06 18:18 | 46.51532 | 20.03293 | 34896 ft | 435 kts | 177° |
| 2026-05-06 18:18 | 46.45516 | 20.04344 | 34903 ft | 435 kts | 177° |
| 2026-05-06 18:19 | 46.39504 | 20.05392 | 34906 ft | 435 kts | 177° |
| 2026-05-06 18:19 | 46.33498 | 20.06437 | 34905 ft | 435 kts | 177° |
| 2026-05-06 18:20 | 46.27487 | 20.07481 | 34905 ft | 435 kts | 177° |
| 2026-05-06 18:20 | 46.21478 | 20.08522 | 34904 ft | 435 kts | 177° |
| 2026-05-06 18:21 | 46.15504 | 20.10010 | 34898 ft | 440 kts | 166° |
| 2026-05-06 18:21 | 46.09832 | 20.13481 | 34902 ft | 444 kts | 159° |
| 2026-05-06 18:22 | 46.04220 | 20.17211 | 34901 ft | 444 kts | 159° |
| 2026-05-06 18:22 | 45.98591 | 20.20905 | 34908 ft | 444 kts | 160° |
| 2026-05-06 18:23 | 45.92965 | 20.24547 | 34908 ft | 444 kts | 160° |
| 2026-05-06 18:23 | 45.87317 | 20.28177 | 34906 ft | 444 kts | 160° |
| 2026-05-06 18:24 | 45.81668 | 20.31798 | 34911 ft | 445 kts | 160° |
| 2026-05-06 18:24 | 45.76012 | 20.35416 | 34909 ft | 445 kts | 160° |
| 2026-05-06 18:25 | 45.70391 | 20.39005 | 34908 ft | 446 kts | 160° |
| 2026-05-06 18:25 | 45.64722 | 20.42617 | 34919 ft | 446 kts | 160° |
| 2026-05-06 18:26 | 45.59050 | 20.46222 | 34918 ft | 446 kts | 160° |
| 2026-05-06 18:26 | 45.53366 | 20.49828 | 34910 ft | 447 kts | 160° |
| 2026-05-06 18:27 | 45.47681 | 20.53426 | 34916 ft | 447 kts | 160° |
| 2026-05-06 18:27 | 45.41991 | 20.57019 | 34915 ft | 447 kts | 160° |
| 2026-05-06 18:28 | 45.36302 | 20.60604 | 34922 ft | 448 kts | 160° |
| 2026-05-06 18:28 | 45.30602 | 20.64187 | 34912 ft | 448 kts | 160° |
| 2026-05-06 18:29 | 45.24899 | 20.67765 | 34908 ft | 448 kts | 160° |
| 2026-05-06 18:29 | 45.19199 | 20.71333 | 34926 ft | 448 kts | 160° |
| 2026-05-06 18:30 | 45.13892 | 20.74648 | 34914 ft | 448 kts | 160° |
| 2026-05-06 18:30 | 45.08185 | 20.78205 | 34919 ft | 449 kts | 160° |
| 2026-05-06 18:31 | 45.02449 | 20.81772 | 34924 ft | 449 kts | 160° |
| 2026-05-06 18:31 | 44.96729 | 20.85321 | 34920 ft | 449 kts | 160° |
| 2026-05-06 18:32 | 44.91037 | 20.88846 | 34916 ft | 449 kts | 160° |
| 2026-05-06 18:32 | 44.85294 | 20.92394 | 34919 ft | 450 kts | 160° |
| 2026-05-06 18:33 | 44.79561 | 20.95929 | 34923 ft | 450 kts | 160° |
| 2026-05-06 18:33 | 44.73816 | 20.99463 | 34919 ft | 450 kts | 160° |
| 2026-05-06 18:34 | 44.68093 | 21.02976 | 34924 ft | 450 kts | 160° |
| 2026-05-06 18:34 | 44.62326 | 21.06509 | 34925 ft | 451 kts | 160° |
| 2026-05-06 18:35 | 44.56612 | 21.10001 | 34923 ft | 451 kts | 160° |
| 2026-05-06 18:35 | 44.50847 | 21.13517 | 34922 ft | 452 kts | 160° |
| 2026-05-06 18:36 | 44.45074 | 21.17031 | 34925 ft | 452 kts | 160° |
| 2026-05-06 18:36 | 44.39301 | 21.20538 | 34920 ft | 453 kts | 160° |
| 2026-05-06 18:37 | 44.34483 | 21.23459 | 34933 ft | 453 kts | 160° |
| 2026-05-06 18:37 | 44.27677 | 21.27265 | 34928 ft | 452 kts | 163° |
| 2026-05-06 18:38 | 44.21739 | 21.30232 | 34931 ft | 452 kts | 164° |
| 2026-05-06 18:38 | 44.15816 | 21.33183 | 34924 ft | 453 kts | 163° |
| 2026-05-06 18:39 | 44.09900 | 21.36166 | 34931 ft | 453 kts | 163° |
| 2026-05-06 18:40 | 44.01018 | 21.40667 | 34937 ft | 453 kts | 163° |
| 2026-05-06 18:40 | 43.95107 | 21.43657 | 34935 ft | 453 kts | 163° |
| 2026-05-06 18:41 | 43.89148 | 21.46665 | 34933 ft | 453 kts | 163° |
| 2026-05-06 18:41 | 43.83245 | 21.49637 | 34938 ft | 454 kts | 163° |
| 2026-05-06 18:42 | 43.77309 | 21.52619 | 34937 ft | 454 kts | 163° |
| 2026-05-06 18:42 | 43.71356 | 21.55604 | 34940 ft | 454 kts | 163° |
| 2026-05-06 18:43 | 43.65430 | 21.58568 | 34939 ft | 455 kts | 163° |
| 2026-05-06 18:43 | 43.60454 | 21.61053 | 34946 ft | 455 kts | 163° |
| 2026-05-06 18:44 | 43.54513 | 21.64014 | 34950 ft | 455 kts | 163° |
| 2026-05-06 18:44 | 43.48563 | 21.66973 | 34959 ft | 456 kts | 163° |
| 2026-05-06 18:45 | 43.42594 | 21.69935 | 34962 ft | 456 kts | 163° |
| 2026-05-06 18:45 | 43.36618 | 21.72894 | 34964 ft | 457 kts | 163° |
| 2026-05-06 18:46 | 43.30635 | 21.75851 | 34970 ft | 457 kts | 163° |
| 2026-05-06 18:46 | 43.24625 | 21.78815 | 34965 ft | 458 kts | 163° |
| 2026-05-06 18:47 | 43.18620 | 21.81770 | 34966 ft | 458 kts | 163° |
| 2026-05-06 18:47 | 43.12629 | 21.84712 | 34964 ft | 459 kts | 163° |
| 2026-05-06 18:48 | 43.06617 | 21.87658 | 34963 ft | 459 kts | 163° |
| 2026-05-06 18:48 | 43.00595 | 21.90603 | 34970 ft | 460 kts | 163° |
| 2026-05-06 18:49 | 42.94558 | 21.93549 | 34980 ft | 460 kts | 163° |
| 2026-05-06 18:49 | 42.88562 | 21.96470 | 34980 ft | 461 kts | 163° |
| 2026-05-06 18:50 | 42.82514 | 21.99409 | 34984 ft | 461 kts | 163° |
| 2026-05-06 18:50 | 42.76449 | 22.02351 | 34977 ft | 462 kts | 163° |
| 2026-05-06 18:51 | 42.70397 | 22.05280 | 34983 ft | 461 kts | 163° |
| 2026-05-06 18:51 | 42.64374 | 22.08189 | 34999 ft | 461 kts | 163° |
| 2026-05-06 18:52 | 42.58333 | 22.11101 | 35009 ft | 462 kts | 163° |
| 2026-05-06 18:52 | 42.52253 | 22.14026 | 35005 ft | 462 kts | 163° |
| 2026-05-06 18:53 | 42.46215 | 22.16925 | 35015 ft | 462 kts | 163° |
| 2026-05-06 18:53 | 42.40132 | 22.19839 | 35007 ft | 462 kts | 163° |
| 2026-05-06 18:54 | 42.34093 | 22.22727 | 35012 ft | 462 kts | 163° |
| 2026-05-06 18:54 | 42.27937 | 22.25138 | 35012 ft | 458 kts | 173° |
| 2026-05-06 18:55 | 42.21639 | 22.26593 | 35017 ft | 457 kts | 174° |
| 2026-05-06 18:55 | 42.15377 | 22.27979 | 35016 ft | 457 kts | 174° |
| 2026-05-06 18:56 | 42.09103 | 22.29416 | 35011 ft | 458 kts | 174° |
| 2026-05-06 18:56 | 42.02821 | 22.30887 | 35008 ft | 458 kts | 173° |
| 2026-05-06 18:57 | 41.96543 | 22.32362 | 35013 ft | 459 kts | 173° |
| 2026-05-06 18:57 | 41.90250 | 22.33836 | 35009 ft | 459 kts | 174° |
| 2026-05-06 18:58 | 41.83966 | 22.35304 | 35016 ft | 459 kts | 174° |
| 2026-05-06 18:58 | 41.77691 | 22.36766 | 35013 ft | 459 kts | 174° |
| 2026-05-06 18:59 | 41.71369 | 22.38237 | 35013 ft | 459 kts | 174° |
| 2026-05-06 18:59 | 41.65104 | 22.39691 | 35013 ft | 459 kts | 174° |
| 2026-05-06 19:00 | 41.58781 | 22.41156 | 35019 ft | 459 kts | 174° |
| 2026-05-06 19:00 | 41.52504 | 22.42607 | 35019 ft | 460 kts | 174° |
| 2026-05-06 19:01 | 41.46185 | 22.44065 | 35022 ft | 460 kts | 174° |
| 2026-05-06 19:01 | 41.39894 | 22.45514 | 35030 ft | 460 kts | 174° |
| 2026-05-06 19:02 | 41.33561 | 22.46970 | 35015 ft | 461 kts | 174° |
| 2026-05-06 19:02 | 41.27253 | 22.48417 | 35026 ft | 461 kts | 174° |
| 2026-05-06 19:03 | 41.20947 | 22.49861 | 35018 ft | 462 kts | 174° |
| 2026-05-06 19:03 | 41.14609 | 22.51366 | 35015 ft | 464 kts | 169° |
| 2026-05-06 19:04 | 41.08576 | 22.54562 | 35033 ft | 470 kts | 154° |
| 2026-05-06 19:04 | 41.02865 | 22.58719 | 35026 ft | 471 kts | 153° |
| 2026-05-06 19:05 | 40.97906 | 22.62333 | 35031 ft | 472 kts | 154° |
| 2026-05-06 19:05 | 40.92127 | 22.66468 | 35031 ft | 472 kts | 154° |
| 2026-05-06 19:06 | 40.86326 | 22.70575 | 35023 ft | 473 kts | 154° |
| 2026-05-06 19:06 | 40.80526 | 22.74667 | 35033 ft | 474 kts | 154° |
| 2026-05-06 19:07 | 40.74708 | 22.78767 | 35032 ft | 474 kts | 154° |
| 2026-05-06 19:07 | 40.68895 | 22.82856 | 35040 ft | 474 kts | 154° |
| 2026-05-06 19:08 | 40.63074 | 22.86945 | 35043 ft | 473 kts | 154° |
| 2026-05-06 19:08 | 40.57263 | 22.91017 | 35050 ft | 473 kts | 154° |
| 2026-05-06 19:09 | 40.51455 | 22.95081 | 35050 ft | 472 kts | 154° |
| 2026-05-06 19:09 | 40.45655 | 22.99108 | 35050 ft | 471 kts | 156° |
| 2026-05-06 19:10 | 40.39614 | 23.02316 | 35039 ft | 468 kts | 162° |
| 2026-05-06 19:10 | 40.33543 | 23.05214 | 35043 ft | 467 kts | 162° |
| 2026-05-06 19:11 | 40.27422 | 23.08200 | 35038 ft | 466 kts | 161° |
| 2026-05-06 19:11 | 40.21398 | 23.11191 | 35039 ft | 466 kts | 161° |
| 2026-05-06 19:12 | 40.15329 | 23.14206 | 35039 ft | 465 kts | 161° |
| 2026-05-06 19:12 | 40.09231 | 23.17221 | 35042 ft | 465 kts | 161° |
| 2026-05-06 19:13 | 40.03214 | 23.20188 | 35043 ft | 465 kts | 161° |
| 2026-05-06 19:13 | 39.97527 | 23.22989 | 35042 ft | 466 kts | 161° |
| 2026-05-06 19:14 | 39.93026 | 23.25203 | 35043 ft | 466 kts | 161° |
| 2026-05-06 19:14 | 39.87027 | 23.28138 | 35047 ft | 466 kts | 161° |
| 2026-05-06 19:15 | 39.80944 | 23.31090 | 35044 ft | 466 kts | 161° |
| 2026-05-06 19:15 | 39.74865 | 23.34039 | 35048 ft | 467 kts | 161° |
| 2026-05-06 19:16 | 39.68786 | 23.36998 | 35045 ft | 467 kts | 161° |
| 2026-05-06 19:16 | 39.62706 | 23.39972 | 35044 ft | 467 kts | 161° |
| 2026-05-06 19:17 | 39.56624 | 23.42942 | 35046 ft | 467 kts | 161° |
| 2026-05-06 19:17 | 39.50541 | 23.45904 | 35045 ft | 467 kts | 161° |
| 2026-05-06 19:18 | 39.44462 | 23.48859 | 35037 ft | 467 kts | 161° |
| 2026-05-06 19:18 | 39.38380 | 23.51807 | 35032 ft | 466 kts | 161° |
| 2026-05-06 19:19 | 39.32303 | 23.54745 | 35026 ft | 466 kts | 161° |
| 2026-05-06 19:19 | 39.26228 | 23.57678 | 35023 ft | 466 kts | 161° |
| 2026-05-06 19:20 | 39.20163 | 23.60605 | 35020 ft | 465 kts | 161° |
| 2026-05-06 19:20 | 39.14069 | 23.63439 | 35027 ft | 465 kts | 163° |
| 2026-05-06 19:21 | 39.07972 | 23.66026 | 35025 ft | 465 kts | 164° |
| 2026-05-06 19:21 | 39.01821 | 23.68610 | 35032 ft | 465 kts | 164° |
| 2026-05-06 19:22 | 38.95679 | 23.71218 | 35039 ft | 465 kts | 164° |
| 2026-05-06 19:22 | 38.89542 | 23.73839 | 35046 ft | 465 kts | 164° |
| 2026-05-06 19:23 | 38.83406 | 23.76459 | 35048 ft | 465 kts | 164° |
| 2026-05-06 19:23 | 38.77259 | 23.79078 | 35051 ft | 465 kts | 164° |
| 2026-05-06 19:24 | 38.71111 | 23.81692 | 35056 ft | 466 kts | 164° |
| 2026-05-06 19:24 | 38.64959 | 23.84302 | 35062 ft | 466 kts | 164° |
| 2026-05-06 19:25 | 38.58802 | 23.86910 | 35054 ft | 467 kts | 164° |
| 2026-05-06 19:25 | 38.52650 | 23.89511 | 35063 ft | 467 kts | 164° |
| 2026-05-06 19:26 | 38.46460 | 23.92124 | 35063 ft | 468 kts | 164° |
| 2026-05-06 19:26 | 38.40276 | 23.94729 | 35070 ft | 468 kts | 164° |
| 2026-05-06 19:27 | 38.34090 | 23.97331 | 35065 ft | 468 kts | 164° |
| 2026-05-06 19:27 | 38.27909 | 23.99925 | 35074 ft | 468 kts | 164° |
| 2026-05-06 19:28 | 38.21733 | 24.02513 | 35076 ft | 467 kts | 164° |
| 2026-05-06 19:28 | 38.16594 | 24.04663 | 35089 ft | 467 kts | 164° |
| 2026-05-06 19:29 | 38.10410 | 24.07246 | 35087 ft | 467 kts | 164° |
| 2026-05-06 19:29 | 38.04239 | 24.09818 | 35094 ft | 467 kts | 164° |
| 2026-05-06 19:30 | 37.98067 | 24.12387 | 35098 ft | 467 kts | 164° |
| 2026-05-06 19:30 | 37.91898 | 24.14950 | 35092 ft | 466 kts | 164° |
| 2026-05-06 19:31 | 37.85736 | 24.17505 | 35089 ft | 466 kts | 164° |
| 2026-05-06 19:31 | 37.76487 | 24.21333 | 35083 ft | 466 kts | 164° |
| 2026-05-06 19:32 | 37.70336 | 24.23873 | 35080 ft | 465 kts | 164° |
| 2026-05-06 19:32 | 37.64175 | 24.26412 | 35074 ft | 465 kts | 164° |
| 2026-05-06 19:33 | 37.58064 | 24.28928 | 35092 ft | 465 kts | 164° |
| 2026-05-06 19:33 | 37.51810 | 24.31124 | 35073 ft | 461 kts | 170° |
| 2026-05-06 19:34 | 37.45601 | 24.32731 | 35065 ft | 456 kts | 171° |
| 2026-05-06 19:34 | 37.39395 | 24.34334 | 34834 ft | 456 kts | 171° |
| 2026-05-06 19:35 | 37.36312 | 24.35157 | 34498 ft | 451 kts | 171° |
| 2026-05-06 19:35 | 37.33244 | 24.35987 | 34092 ft | 447 kts | 171° |
| 2026-05-06 19:35 | 37.30217 | 24.36809 | 33648 ft | 444 kts | 171° |
| 2026-05-06 19:35 | 37.27212 | 24.37623 | 33233 ft | 441 kts | 171° |
| 2026-05-06 19:36 | 37.24218 | 24.38433 | 32816 ft | 438 kts | 171° |
| 2026-05-06 19:36 | 37.21252 | 24.39233 | 32421 ft | 434 kts | 171° |
| 2026-05-06 19:36 | 37.18312 | 24.40033 | 32027 ft | 431 kts | 170° |
| 2026-05-06 19:36 | 37.15391 | 24.40836 | 31621 ft | 428 kts | 170° |
| 2026-05-06 19:37 | 37.12488 | 24.41635 | 31234 ft | 426 kts | 170° |
| 2026-05-06 19:37 | 37.09608 | 24.42425 | 30848 ft | 423 kts | 170° |
| 2026-05-06 19:37 | 37.06747 | 24.43208 | 30530 ft | 419 kts | 170° |
| 2026-05-06 19:37 | 37.03911 | 24.43983 | 30156 ft | 416 kts | 170° |
| 2026-05-06 19:38 | 37.01062 | 24.44760 | 29716 ft | 413 kts | 170° |
| 2026-05-06 19:38 | 36.98280 | 24.45518 | 29313 ft | 414 kts | 170° |
| 2026-05-06 19:38 | 36.95458 | 24.46286 | 28902 ft | 416 kts | 170° |
| 2026-05-06 19:38 | 36.92640 | 24.47053 | 28486 ft | 413 kts | 170° |
| 2026-05-06 19:39 | 36.89847 | 24.47814 | 28094 ft | 409 kts | 170° |
| 2026-05-06 19:39 | 36.87070 | 24.48569 | 27687 ft | 407 kts | 169° |
| 2026-05-06 19:39 | 36.84320 | 24.49317 | 27288 ft | 404 kts | 169° |
| 2026-05-06 19:39 | 36.81583 | 24.50060 | 26897 ft | 401 kts | 169° |
| 2026-05-06 19:40 | 36.78868 | 24.50797 | 26516 ft | 399 kts | 169° |
| 2026-05-06 19:40 | 36.76162 | 24.51531 | 26115 ft | 396 kts | 169° |
| 2026-05-06 19:40 | 36.73508 | 24.52415 | 25744 ft | 396 kts | 162° |
| 2026-05-06 19:40 | 36.70932 | 24.53605 | 25390 ft | 393 kts | 160° |
| 2026-05-06 19:41 | 36.68386 | 24.54858 | 25007 ft | 392 kts | 159° |
| 2026-05-06 19:41 | 36.65862 | 24.56118 | 24630 ft | 390 kts | 159° |
| 2026-05-06 19:41 | 36.63341 | 24.57369 | 24240 ft | 389 kts | 159° |
| 2026-05-06 19:41 | 36.60822 | 24.58607 | 23864 ft | 388 kts | 159° |
| 2026-05-06 19:42 | 36.58303 | 24.59833 | 23427 ft | 388 kts | 160° |
| 2026-05-06 19:42 | 36.55796 | 24.61045 | 23011 ft | 386 kts | 160° |
| 2026-05-06 19:42 | 36.53297 | 24.62249 | 22605 ft | 384 kts | 160° |
| 2026-05-06 19:42 | 36.50813 | 24.63442 | 22220 ft | 382 kts | 160° |
| 2026-05-06 19:43 | 36.48333 | 24.64631 | 21836 ft | 380 kts | 160° |
| 2026-05-06 19:43 | 36.45878 | 24.65808 | 21457 ft | 378 kts | 160° |
| 2026-05-06 19:43 | 36.43434 | 24.66978 | 21080 ft | 376 kts | 160° |
| 2026-05-06 19:43 | 36.41000 | 24.68143 | 20717 ft | 374 kts | 160° |
| 2026-05-06 19:44 | 36.38576 | 24.69302 | 20342 ft | 372 kts | 160° |
| 2026-05-06 19:44 | 36.36168 | 24.70453 | 19972 ft | 371 kts | 160° |
| 2026-05-06 19:44 | 36.33764 | 24.71601 | 19605 ft | 370 kts | 160° |
| 2026-05-06 19:44 | 36.31365 | 24.72746 | 19216 ft | 369 kts | 160° |
| 2026-05-06 19:45 | 36.29587 | 24.73595 | 18935 ft | 368 kts | 160° |
| 2026-05-06 19:45 | 36.28300 | 24.74208 | 18738 ft | 368 kts | 160° |
| 2026-05-06 19:45 | 36.25914 | 24.75346 | 18350 ft | 368 kts | 160° |
| 2026-05-06 19:45 | 36.23525 | 24.76483 | 17934 ft | 366 kts | 160° |
| 2026-05-06 19:46 | 36.21154 | 24.77612 | 17549 ft | 364 kts | 160° |
| 2026-05-06 19:46 | 36.18821 | 24.78722 | 17177 ft | 362 kts | 160° |
| 2026-05-06 19:46 | 36.16475 | 24.79837 | 16813 ft | 360 kts | 160° |
| 2026-05-06 19:46 | 36.14144 | 24.80945 | 16444 ft | 358 kts | 160° |
| 2026-05-06 19:47 | 36.11827 | 24.82046 | 16084 ft | 356 kts | 160° |
| 2026-05-06 19:47 | 36.09521 | 24.83140 | 15728 ft | 354 kts | 160° |
| 2026-05-06 19:47 | 36.07228 | 24.84227 | 15373 ft | 352 kts | 160° |
| 2026-05-06 19:47 | 36.04944 | 24.85309 | 15014 ft | 350 kts | 160° |
| 2026-05-06 19:48 | 36.02675 | 24.86381 | 14701 ft | 348 kts | 160° |
| 2026-05-06 19:48 | 36.00423 | 24.87444 | 14359 ft | 345 kts | 160° |
| 2026-05-06 19:48 | 35.98183 | 24.88500 | 14014 ft | 344 kts | 160° |
| 2026-05-06 19:48 | 35.95952 | 24.89552 | 13639 ft | 342 kts | 160° |
| 2026-05-06 19:49 | 35.93733 | 24.90598 | 13260 ft | 340 kts | 160° |
| 2026-05-06 19:49 | 35.91531 | 24.91635 | 12892 ft | 338 kts | 160° |
| 2026-05-06 19:49 | 35.89338 | 24.92668 | 12538 ft | 336 kts | 160° |
| 2026-05-06 19:49 | 35.87158 | 24.93694 | 12182 ft | 334 kts | 160° |
| 2026-05-06 19:50 | 35.84995 | 24.94711 | 11837 ft | 332 kts | 160° |
| 2026-05-06 19:50 | 35.82847 | 24.95720 | 11495 ft | 330 kts | 159° |
| 2026-05-06 19:50 | 35.80707 | 24.96726 | 11154 ft | 327 kts | 159° |
| 2026-05-06 19:50 | 35.78588 | 24.97722 | 10815 ft | 325 kts | 159° |
| 2026-05-06 19:51 | 35.76479 | 24.98711 | 10483 ft | 324 kts | 159° |
| 2026-05-06 19:51 | 35.74396 | 24.99688 | 10317 ft | 316 kts | 159° |
| 2026-05-06 19:51 | 35.72370 | 25.00638 | 10171 ft | 308 kts | 159° |
| 2026-05-06 19:51 | 35.70400 | 25.01562 | 10080 ft | 298 kts | 159° |
| 2026-05-06 19:52 | 35.68487 | 25.02461 | 9752 ft | 297 kts | 159° |
| 2026-05-06 19:52 | 35.66563 | 25.03375 | 9448 ft | 295 kts | 156° |
| 2026-05-06 19:52 | 35.64930 | 25.04859 | 9126 ft | 293 kts | 130° |
| 2026-05-06 19:52 | 35.63692 | 25.06826 | 8848 ft | 290 kts | 125° |
| 2026-05-06 19:53 | 35.62533 | 25.08844 | 8549 ft | 288 kts | 124° |
| 2026-05-06 19:53 | 35.61387 | 25.10864 | 8252 ft | 287 kts | 124° |
| 2026-05-06 19:53 | 35.60248 | 25.12866 | 7966 ft | 286 kts | 124° |
| 2026-05-06 19:53 | 35.59104 | 25.14860 | 7679 ft | 284 kts | 124° |
| 2026-05-06 19:54 | 35.57965 | 25.16833 | 7397 ft | 283 kts | 124° |
| 2026-05-06 19:54 | 35.56824 | 25.18802 | 7108 ft | 282 kts | 124° |
| 2026-05-06 19:54 | 35.55688 | 25.20756 | 6823 ft | 281 kts | 124° |
| 2026-05-06 19:54 | 35.54564 | 25.22686 | 6531 ft | 281 kts | 124° |
| 2026-05-06 19:55 | 35.53428 | 25.24633 | 6212 ft | 279 kts | 124° |
| 2026-05-06 19:55 | 35.52304 | 25.26558 | 5824 ft | 279 kts | 124° |
| 2026-05-06 19:55 | 35.51172 | 25.28496 | 5519 ft | 278 kts | 125° |
| 2026-05-06 19:55 | 35.50046 | 25.30422 | 5222 ft | 277 kts | 125° |
| 2026-05-06 19:56 | 35.48924 | 25.32338 | 4935 ft | 276 kts | 125° |
| 2026-05-06 19:56 | 35.47818 | 25.34227 | 4805 ft | 269 kts | 125° |
| 2026-05-06 19:56 | 35.46741 | 25.36063 | 4669 ft | 262 kts | 125° |
| 2026-05-06 19:56 | 35.45564 | 25.37718 | 4530 ft | 254 kts | 145° |
| 2026-05-06 19:57 | 35.43974 | 25.38506 | 4440 ft | 244 kts | 173° |
| 2026-05-06 19:57 | 35.42307 | 25.38438 | 4294 ft | 237 kts | 191° |
| 2026-05-06 19:57 | 35.40697 | 25.38020 | 4051 ft | 236 kts | 194° |
| 2026-05-06 19:57 | 35.39098 | 25.37564 | 3812 ft | 235 kts | 194° |
| 2026-05-06 19:58 | 35.37505 | 25.37120 | 3570 ft | 234 kts | 193° |
| 2026-05-06 19:58 | 35.35916 | 25.36687 | 3330 ft | 234 kts | 193° |
| 2026-05-06 19:58 | 35.34394 | 25.36108 | 3064 ft | 225 kts | 213° |
| 2026-05-06 19:58 | 35.33425 | 25.34748 | 2844 ft | 208 kts | 252° |
| 2026-05-06 19:59 | 35.33121 | 25.33083 | 2637 ft | 198 kts | 264° |
| 2026-05-06 19:59 | 35.33092 | 25.31433 | 2359 ft | 189 kts | 272° |
| 2026-05-06 19:59 | 35.33168 | 25.29881 | 2074 ft | 176 kts | 274° |
| 2026-05-06 19:59 | 35.33260 | 25.28456 | 1837 ft | 160 kts | 274° |
| 2026-05-06 20:00 | 35.33348 | 25.27155 | 1578 ft | 148 kts | 274° |
| 2026-05-06 20:00 | 35.33432 | 25.25919 | 1382 ft | 145 kts | 274° |
| 2026-05-06 20:00 | 35.33517 | 25.24682 | 1172 ft | 150 kts | 274° |
| 2026-05-06 20:00 | 35.33604 | 25.23408 | 931 ft | 150 kts | 274° |
| 2026-05-06 20:01 | 35.33695 | 25.22139 | 679 ft | 148 kts | 274° |
| 2026-05-06 20:01 | 35.33784 | 25.20894 | 463 ft | 146 kts | 273° |
| 2026-05-06 20:01 | 35.33868 | 25.19649 | 239 ft | 148 kts | 273° |
| 2026-05-06 20:01 | 35.33946 | 25.18415 | 93 ft | 138 kts | 272° |
| 2026-05-06 20:02 | 35.34014 | 25.17457 | 90 ft | 82 kts | 274° |
| 2026-05-06 20:02 | 35.34048 | 25.16979 | 89 ft | 44 kts | 275° |
| 2026-05-06 20:02 | 35.34032 | 25.16845 | 92 ft | 8 kts | 205° |
| 2026-05-06 20:02 | 35.33997 | 25.16884 | 91 ft | 8 kts | 110° |
| 2026-05-06 20:03 | 35.33973 | 25.16943 | 90 ft | 8 kts | 122° |
| 2026-05-06 20:03 | 35.33948 | 25.17000 | 92 ft | 7 kts | 109° |
| 2026-05-06 20:03 | 35.33942 | 25.17062 | 90 ft | 7 kts | 94° |
| 2026-05-06 20:03 | 35.33938 | 25.17122 | 89 ft | 7 kts | 95° |
| 2026-05-06 20:04 | 35.33933 | 25.17192 | 89 ft | 11 kts | 95° |
| 2026-05-06 20:04 | 35.33925 | 25.17317 | 91 ft | 16 kts | 95° |
| 2026-05-06 20:04 | 35.33917 | 25.17419 | 90 ft | 12 kts | 95° |
| 2026-05-06 20:04 | 35.33894 | 25.17503 | 94 ft | 7 kts | 155° |
| 2026-05-06 20:05 | 35.33845 | 25.17498 | 93 ft | 7 kts | 187° |
| 2026-05-06 20:05 | 35.33797 | 25.17492 | 90 ft | 7 kts | 185° |
| 2026-05-06 20:05 | 35.33765 | 25.17457 | 91 ft | 7 kts | 266° |
| 2026-05-06 20:05 | 35.33768 | 25.17418 | 93 ft | 4 kts | 275° |
| 2026-05-06 20:06 | 35.33768 | 25.17413 | 92 ft | 0 kts | 275° |